createdAt,value
2018-11-03T00:01:51.622Z,8.10
2018-11-03T00:06:54.997Z,7.90
2018-11-03T00:11:58.482Z,7.80
2018-11-03T00:17:01.762Z,7.70
2018-11-03T00:22:05.231Z,7.50
2018-11-03T00:27:08.720Z,7.50
2018-11-03T00:32:12.344Z,7.40
2018-11-03T00:37:15.673Z,7.00
2018-11-03T00:42:19.124Z,7.00
2018-11-03T00:47:22.552Z,7.00
2018-11-03T00:52:26.235Z,6.90
2018-11-03T00:57:29.631Z,6.90
2018-11-03T01:02:33.009Z,6.90
2018-11-03T01:07:37.154Z,7.00
2018-11-03T01:12:41.032Z,7.00
2018-11-03T01:17:44.647Z,6.90
2018-11-03T01:22:48.187Z,6.80
2018-11-03T01:27:51.764Z,6.90
2018-11-03T01:32:55.201Z,6.90
2018-11-03T01:37:58.648Z,7.00
2018-11-03T01:43:02.329Z,7.10
2018-11-03T01:48:05.973Z,7.00
2018-11-03T01:53:09.290Z,7.00
2018-11-03T01:58:12.685Z,7.00
2018-11-03T02:03:17.234Z,6.80
2018-11-03T02:08:20.730Z,6.60
2018-11-03T02:13:24.170Z,6.50
2018-11-03T02:18:27.662Z,6.50
2018-11-03T02:23:31.127Z,6.50
2018-11-03T02:28:35.541Z,6.50
2018-11-03T02:33:38.886Z,6.40
2018-11-03T02:38:42.377Z,6.30
2018-11-03T02:43:45.842Z,6.20
2018-11-03T02:48:49.132Z,6.10
2018-11-03T02:53:53.465Z,6.10
2018-11-03T02:58:57.165Z,5.90
2018-11-03T03:04:00.660Z,5.80
2018-11-03T03:09:04.656Z,5.80
2018-11-03T03:14:13.231Z,5.80
2018-11-03T03:19:16.677Z,5.80
2018-11-03T03:24:20.305Z,5.70
2018-11-03T03:29:23.812Z,5.50
2018-11-03T03:34:27.596Z,5.60
2018-11-03T03:39:30.953Z,5.70
2018-11-03T03:44:34.451Z,5.60
2018-11-03T03:49:37.859Z,5.60
2018-11-03T03:54:41.313Z,5.50
2018-11-03T03:59:45.641Z,5.50
2018-11-03T04:04:49.077Z,5.50
2018-11-03T04:09:52.533Z,5.60
2018-11-03T04:14:56.579Z,5.60
2018-11-03T04:19:59.997Z,5.50
2018-11-03T04:25:03.561Z,5.40
2018-11-03T04:30:09.718Z,5.30
2018-11-03T04:35:13.153Z,5.30
2018-11-03T04:40:16.617Z,5.20
2018-11-03T04:45:20.107Z,5.20
2018-11-03T04:50:23.560Z,5.30
2018-11-03T04:55:27.509Z,5.40
2018-11-03T05:00:36.285Z,5.30
2018-11-03T05:05:42.658Z,5.30
2018-11-03T05:10:46.036Z,5.10
2018-11-03T05:15:49.464Z,5.10
2018-11-03T05:20:53.573Z,5.00
2018-11-03T05:25:56.966Z,5.00
2018-11-03T05:31:00.614Z,5.10
2018-11-03T05:36:04.054Z,5.10
2018-11-03T05:41:07.569Z,4.90
2018-11-03T05:46:10.983Z,4.90
2018-11-03T05:51:14.288Z,4.80
2018-11-03T05:56:17.668Z,4.50
2018-11-03T06:01:21.178Z,4.50
2018-11-03T06:06:25.474Z,4.50
2018-11-03T06:11:28.935Z,4.30
2018-11-03T06:16:42.403Z,4.10
2018-11-03T06:21:47.661Z,4.20
2018-11-03T06:26:51.145Z,4.10
2018-11-03T06:31:54.636Z,4.20
2018-11-03T06:36:58.841Z,4.10
2018-11-03T06:42:02.888Z,4.00
2018-11-03T06:47:06.239Z,4.00
2018-11-03T06:52:09.668Z,4.00
2018-11-03T06:57:12.956Z,4.10
2018-11-03T07:02:16.370Z,4.20
2018-11-03T07:07:19.762Z,4.00
2018-11-03T07:12:23.399Z,4.20
2018-11-03T07:17:26.805Z,4.30
2018-11-03T07:22:30.171Z,4.50
2018-11-03T07:33:13.351Z,4.90
2018-11-03T07:38:20.063Z,5.40
2018-11-03T07:43:27.186Z,5.90
2018-11-03T07:48:31.741Z,6.20
2018-11-03T07:53:35.122Z,6.40
2018-11-03T07:58:38.880Z,7.00
2018-11-03T08:03:42.402Z,7.30
2018-11-03T08:08:52.323Z,7.40
2018-11-03T08:13:55.930Z,7.80
2018-11-03T08:18:59.700Z,8.10
2018-11-03T08:24:04.358Z,8.50
2018-11-03T08:29:07.863Z,8.70
2018-11-03T08:34:11.704Z,9.00
2018-11-03T08:39:15.932Z,9.40
2018-11-03T08:44:21.882Z,9.80
2018-11-03T08:49:25.855Z,10.00
2018-11-03T08:54:30.373Z,10.40
2018-11-03T08:59:34.106Z,10.60
2018-11-03T09:04:37.680Z,11.00
2018-11-03T09:09:44.216Z,11.40
2018-11-03T09:14:48.217Z,11.60
2018-11-03T09:19:52.436Z,11.70
2018-11-03T09:25:00.929Z,11.90
2018-11-03T09:30:05.074Z,12.00
2018-11-03T09:35:11.427Z,12.10
2018-11-03T09:40:22.223Z,12.30
2018-11-03T09:45:25.749Z,12.50
2018-11-03T09:50:30.684Z,12.80
2018-11-03T09:55:34.254Z,12.90
2018-11-03T10:00:37.811Z,13.00
2018-11-03T10:05:41.287Z,13.60
2018-11-03T10:10:44.898Z,13.80
2018-11-03T10:15:49.204Z,14.30
2018-11-03T10:20:58.758Z,14.60
2018-11-03T10:26:18.837Z,14.90
2018-11-03T10:31:22.406Z,15.30
2018-11-03T10:36:29.386Z,16.00
2018-11-03T10:46:47.618Z,16.50
2018-11-03T10:51:55.354Z,17.10
2018-11-03T10:56:58.888Z,17.30
2018-11-03T11:02:07.689Z,17.50
2018-11-03T11:07:18.224Z,17.40
2018-11-03T11:12:26.880Z,17.70
2018-11-03T11:17:30.372Z,17.80
2018-11-03T11:22:33.822Z,18.20
2018-11-03T11:27:37.288Z,17.80
2018-11-03T11:32:41.122Z,18.00
2018-11-03T11:37:44.594Z,18.40
2018-11-03T11:42:48.296Z,18.90
2018-11-03T11:47:51.791Z,18.90
2018-11-03T11:52:55.234Z,19.30
2018-11-03T11:57:58.946Z,19.30
2018-11-03T12:03:02.450Z,19.30
2018-11-03T12:08:06.223Z,19.10
2018-11-03T12:13:09.656Z,19.40
2018-11-03T12:18:13.023Z,19.70
2018-11-03T12:23:16.411Z,20.10
2018-11-03T12:28:20.690Z,20.00
2018-11-03T12:33:24.254Z,20.40
2018-11-03T12:38:27.734Z,20.40
2018-11-03T12:43:31.236Z,20.10
2018-11-03T12:48:39.573Z,20.10
2018-11-03T12:53:43.029Z,19.90
2018-11-03T12:58:46.573Z,19.70
2018-11-03T13:03:49.991Z,19.90
2018-11-03T13:08:53.486Z,19.80
2018-11-03T13:13:57.079Z,19.30
2018-11-03T13:19:00.561Z,19.10
2018-11-03T13:24:10.772Z,19.10
2018-11-03T13:29:14.219Z,18.80
2018-11-03T13:34:17.700Z,18.80
2018-11-03T13:39:21.150Z,18.40
2018-11-03T13:44:24.474Z,18.40
2018-11-03T13:49:27.942Z,18.60
2018-11-03T13:54:31.784Z,18.60
2018-11-03T13:59:36.727Z,18.60
2018-11-03T14:04:40.153Z,18.00
2018-11-03T14:09:43.629Z,17.60
2018-11-03T14:14:47.379Z,17.40
2018-11-03T14:19:50.743Z,17.50
2018-11-03T14:24:54.097Z,17.50
2018-11-03T14:29:57.560Z,17.70
2018-11-03T14:35:01.645Z,17.50
2018-11-03T14:40:06.184Z,16.60
2018-11-03T14:45:10.562Z,16.10
2018-11-03T14:50:13.965Z,15.60
2018-11-03T14:55:17.368Z,15.10
2018-11-03T15:00:20.770Z,14.80
2018-11-03T15:05:25.235Z,14.70
2018-11-03T15:10:38.517Z,14.30
2018-11-03T15:15:45.891Z,14.00
2018-11-03T15:20:49.499Z,13.90
2018-11-03T15:25:53.096Z,13.70
2018-11-03T15:30:56.591Z,13.50
2018-11-03T15:36:01.116Z,13.40
2018-11-03T15:41:04.793Z,13.30
2018-11-03T15:46:10.277Z,13.10
2018-11-03T15:51:14.497Z,13.00
2018-11-03T15:56:18.572Z,12.70
2018-11-03T16:01:22.757Z,12.50
2018-11-03T16:06:27.923Z,12.30
2018-11-03T16:11:35.157Z,12.20
2018-11-03T16:16:40.799Z,11.80
2018-11-03T16:22:02.293Z,11.70
2018-11-03T16:27:07.536Z,11.60
2018-11-03T16:37:22.966Z,11.20
2018-11-03T16:42:26.486Z,11.00
2018-11-03T17:10:05.693Z,10.40
2018-11-03T17:15:09.851Z,10.30
2018-11-03T17:20:22.892Z,10.20
2018-11-03T17:25:29.680Z,10.10
2018-11-03T17:36:04.495Z,9.90
2018-11-03T17:41:14.251Z,9.80
2018-11-03T17:46:19.806Z,9.70
2018-11-03T18:07:59.227Z,9.60
2018-11-03T18:13:09.535Z,9.70
2018-11-03T18:18:15.172Z,9.70
2018-11-03T18:28:46.921Z,9.80
2018-11-03T18:33:50.594Z,9.90
2018-11-03T18:38:57.160Z,10.00
2018-11-03T18:44:01.541Z,10.00
2018-11-03T18:49:06.614Z,9.90
2018-11-03T18:54:10.953Z,10.00
2018-11-03T18:59:15.520Z,10.00
2018-11-03T19:04:20.273Z,10.10
2018-11-03T19:09:23.895Z,10.10
2018-11-03T19:25:53.208Z,10.00
2018-11-03T19:31:14.602Z,10.10
2018-11-03T19:36:20.996Z,10.20
2018-11-03T19:41:28.654Z,10.20
2018-11-03T19:46:35.669Z,10.20
2018-11-03T19:51:46.417Z,10.20
2018-11-03T19:56:58.269Z,10.30
2018-11-03T20:02:11.355Z,10.30
2018-11-03T20:07:35.498Z,10.30
2018-11-03T20:18:08.504Z,10.30
2018-11-03T20:23:14.770Z,10.30
2018-11-03T20:39:24.829Z,10.10
2018-11-03T20:44:32.266Z,10.10
2018-11-03T20:49:52.549Z,10.10
2018-11-03T20:55:02.889Z,10.00
2018-11-03T21:00:17.115Z,9.90
2018-11-03T21:05:30.460Z,9.90
2018-11-03T21:10:43.644Z,9.90
2018-11-03T21:16:01.054Z,9.90
2018-11-03T21:21:40.342Z,9.90
2018-11-03T21:27:22.216Z,9.90
2018-11-03T21:32:31.049Z,10.00
2018-11-03T21:37:54.710Z,10.00
2018-11-03T21:43:34.171Z,10.00
2018-11-03T21:48:40.718Z,10.00
2018-11-03T21:53:48.023Z,10.00
2018-11-03T21:58:53.067Z,10.00
2018-11-03T22:03:56.536Z,10.10
2018-11-03T22:09:11.624Z,10.20
2018-11-03T22:51:05.746Z,10.50
2018-11-03T23:02:50.661Z,10.40
2018-11-03T23:08:07.574Z,10.50
2018-11-03T23:13:56.908Z,10.50
2018-11-03T23:19:05.152Z,10.50
2018-11-03T23:24:11.061Z,10.50
2018-11-03T23:29:21.559Z,10.50
2018-11-03T23:34:35.546Z,10.50
2018-11-03T23:56:50.666Z,10.50
